Terminal Aerodrome Forecast
Issued by NWS

Home | Current Version | Previous Version | Text Only | Print | Product List | Glossary On
Versions: 1 2 3 4 5 6 7 8 9 10 11 12 13 14
788
FTUS45 KRIW 201740
TAFCOD
TAF
KCOD 201740Z 2018/2118 14013KT P6SM SCT100
     FM210200 25015G25KT P6SM SCT100 BKN200 WS010/24050KT
      AMD LTD TO CLD VIS AND WIND=

USA.gov is the U.S. government's official web portal to all federal, state and local government web resources and services.